Time;durP1;ratioP1;P1;durP2;ratioP2;P2;SDS_P1;SDS_P2;PMS_P1;PMS_P2;Temp;Humidity;BMP_temperature;BMP_pressure;BME280_temperature;BME280_humidity;BME280_pressure;Samples;Min_cycle;Max_cycle;Signal;HPM_P1;HPM_P2
2021/12/30 00:00:55;;;;;;;5.30;2.30;;;;;;;;;;5048122;28;20543;-74
2021/12/30 00:03:20;;;;;;;9.52;2.28;;;;;;;;;;5027989;28;20041;-75
2021/12/30 00:05:46;;;;;;;7.18;3.05;;;;;;;;;;5042200;28;20067;-74
2021/12/30 00:08:12;;;;;;;5.65;2.20;;;;;;;;;;5040359;28;20090;-74
2021/12/30 00:10:40;;;;;;;8.70;2.28;;;;;;;;;;5041512;28;20037;-74
2021/12/30 00:13:05;;;;;;;5.20;2.20;;;;;;;;;;5038898;28;20037;-74
2021/12/30 00:15:30;;;;;;;7.80;2.63;;;;;;;;;;5045193;28;20037;-75
2021/12/30 00:17:56;;;;;;;8.30;2.35;;;;;;;;;;5053524;28;20068;-75
2021/12/30 00:20:22;;;;;;;9.57;3.25;;;;;;;;;;5065642;28;20049;-75
2021/12/30 00:22:48;;;;;;;8.65;2.83;;;;;;;;;;5057035;28;20045;-75
2021/12/30 00:25:15;;;;;;;9.25;3.17;;;;;;;;;;5056449;28;20438;-75
2021/12/30 00:27:40;;;;;;;7.90;3.60;;;;;;;;;;5061897;28;20105;-75
2021/12/30 00:30:09;;;;;;;7.63;3.20;;;;;;;;;;5059143;28;20082;-75
2021/12/30 00:32:34;;;;;;;6.90;2.75;;;;;;;;;;5058863;28;20685;-75
2021/12/30 00:35:00;;;;;;;5.80;2.22;;;;;;;;;;5058387;28;20036;-74
2021/12/30 00:37:25;;;;;;;7.57;2.33;;;;;;;;;;5060628;28;20028;-75
2021/12/30 00:39:51;;;;;;;3.50;1.80;;;;;;;;;;5062637;28;20029;-74
2021/12/30 00:42:16;;;;;;;7.25;2.40;;;;;;;;;;5070322;28;20075;-75
2021/12/30 00:44:42;;;;;;;5.30;1.90;;;;;;;;;;5062422;28;20052;-75
2021/12/30 00:47:07;;;;;;;6.70;1.98;;;;;;;;;;5056853;28;20136;-75
2021/12/30 00:49:33;;;;;;;8.65;2.10;;;;;;;;;;5024459;28;20052;-75
2021/12/30 00:51:58;;;;;;;10.43;3.70;;;;;;;;;;5044572;28;20486;-75
2021/12/30 00:54:24;;;;;;;6.50;3.05;;;;;;;;;;5042897;28;20040;-75
2021/12/30 00:56:50;;;;;;;9.30;3.83;;;;;;;;;;5045202;28;20041;-75
2021/12/30 00:59:16;;;;;;;13.20;4.95;;;;;;;;;;5039778;28;20536;-75
2021/12/30 01:01:41;;;;;;;12.07;4.88;;;;;;;;;;5043771;28;20036;-75
2021/12/30 01:04:07;;;;;;;13.75;4.88;;;;;;;;;;5046481;28;20041;-75
2021/12/30 01:06:33;;;;;;;9.07;4.50;;;;;;;;;;5013336;28;20164;-75
2021/12/30 01:08:59;;;;;;;8.98;4.35;;;;;;;;;;5039708;28;20037;-75
2021/12/30 01:11:25;;;;;;;10.60;4.15;;;;;;;;;;5045949;28;20041;-75
2021/12/30 01:14:15;;;;;;;9.50;4.55;;;;;;;;;;5046160;28;20044;-75
2021/12/30 01:16:43;;;;;;;10.38;3.75;;;;;;;;;;5043348;28;20087;-75
2021/12/30 01:19:42;;;;;;;10.57;4.25;;;;;;;;;;5049821;28;20029;-75
2021/12/30 01:22:01;;;;;;;7.07;3.47;;;;;;;;;;5038215;28;20053;-75
2021/12/30 01:24:26;;;;;;;6.45;3.50;;;;;;;;;;5040899;28;20178;-75
2021/12/30 01:26:52;;;;;;;6.85;3.35;;;;;;;;;;5043332;28;20041;-75
2021/12/30 01:29:17;;;;;;;5.47;3.28;;;;;;;;;;5043011;28;20402;-75
2021/12/30 01:31:43;;;;;;;5.70;3.10;;;;;;;;;;5046860;28;20127;-75
2021/12/30 01:34:08;;;;;;;6.82;3.13;;;;;;;;;;5043113;28;20134;-75
2021/12/30 01:36:34;;;;;;;5.15;2.90;;;;;;;;;;5041307;28;20029;-74
2021/12/30 01:38:59;;;;;;;5.28;3.05;;;;;;;;;;5043323;28;20498;-75
2021/12/30 01:41:24;;;;;;;10.10;4.05;;;;;;;;;;5045492;28;20469;-75
2021/12/30 01:43:51;;;;;;;8.20;4.00;;;;;;;;;;5049422;28;20041;-75
2021/12/30 01:46:16;;;;;;;8.60;3.67;;;;;;;;;;5040332;28;20056;-75
2021/12/30 01:48:43;;;;;;;6.40;3.60;;;;;;;;;;5061927;28;20052;-75
2021/12/30 01:51:09;;;;;;;7.40;3.75;;;;;;;;;;5058239;28;20040;-75
2021/12/30 01:53:35;;;;;;;6.43;3.15;;;;;;;;;;5064095;28;20036;-75
2021/12/30 01:56:02;;;;;;;5.57;3.28;;;;;;;;;;5059535;28;20081;-75
2021/12/30 01:58:28;;;;;;;5.63;3.03;;;;;;;;;;5060774;28;20137;-75
2021/12/30 02:00:53;;;;;;;5.70;3.25;;;;;;;;;;5069181;28;20556;-75
2021/12/30 02:03:20;;;;;;;5.53;3.10;;;;;;;;;;5069098;28;20047;-75
2021/12/30 02:05:47;;;;;;;5.00;2.83;;;;;;;;;;5058488;28;20119;-75
2021/12/30 02:08:15;;;;;;;4.30;2.95;;;;;;;;;;5060233;28;20391;-75
2021/12/30 02:10:43;;;;;;;5.47;2.75;;;;;;;;;;5061695;28;20607;-75
2021/12/30 02:13:10;;;;;;;4.50;2.70;;;;;;;;;;5067471;28;20028;-75
2021/12/30 02:15:36;;;;;;;3.63;2.53;;;;;;;;;;5069320;28;20127;-75
2021/12/30 02:18:02;;;;;;;3.58;2.47;;;;;;;;;;5056874;28;20036;-75
2021/12/30 02:20:40;;;;;;;3.03;2.47;;;;;;;;;;5059134;28;20132;-75
2021/12/30 02:23:05;;;;;;;3.20;2.40;;;;;;;;;;5060261;28;20044;-75
2021/12/30 02:25:31;;;;;;;3.25;2.30;;;;;;;;;;5060594;28;20047;-75
2021/12/30 02:27:56;;;;;;;6.07;3.05;;;;;;;;;;5063660;28;20033;-74
2021/12/30 02:30:22;;;;;;;5.57;2.70;;;;;;;;;;5060291;28;20169;-75
2021/12/30 02:32:47;;;;;;;3.60;2.28;;;;;;;;;;5061396;28;20036;-74
2021/12/30 02:35:12;;;;;;;4.18;2.13;;;;;;;;;;5062806;28;20557;-75
2021/12/30 02:37:38;;;;;;;3.25;2.13;;;;;;;;;;5068775;28;20055;-74
2021/12/30 02:40:05;;;;;;;4.18;2.40;;;;;;;;;;5064590;28;20024;-75
2021/12/30 02:42:31;;;;;;;3.25;2.33;;;;;;;;;;5065708;28;20040;-75
2021/12/30 02:44:56;;;;;;;4.50;2.38;;;;;;;;;;5068576;28;20036;-75
2021/12/30 02:47:21;;;;;;;4.03;2.60;;;;;;;;;;5061489;28;20067;-75
2021/12/30 02:49:47;;;;;;;4.38;3.00;;;;;;;;;;5064693;28;20040;-75
2021/12/30 02:52:12;;;;;;;4.35;2.90;;;;;;;;;;5067616;28;20035;-75
2021/12/30 02:54:39;;;;;;;6.47;2.92;;;;;;;;;;5062452;28;20043;-75
2021/12/30 02:57:04;;;;;;;7.30;3.38;;;;;;;;;;5054324;28;20033;-75
2021/12/30 02:59:30;;;;;;;6.32;3.88;;;;;;;;;;5062401;28;20131;-75
2021/12/30 03:01:55;;;;;;;7.18;4.05;;;;;;;;;;5062693;28;20047;-75
2021/12/30 03:04:21;;;;;;;6.95;4.13;;;;;;;;;;5060687;28;20020;-75
2021/12/30 03:06:48;;;;;;;8.00;4.53;;;;;;;;;;5062565;28;20107;-75
2021/12/30 03:09:14;;;;;;;8.30;5.00;;;;;;;;;;5058706;28;20032;-75
2021/12/30 03:11:39;;;;;;;7.85;4.43;;;;;;;;;;5065590;28;20106;-75
2021/12/30 03:14:04;;;;;;;9.90;4.70;;;;;;;;;;5051210;28;20465;-75
2021/12/30 03:16:34;;;;;;;8.40;5.00;;;;;;;;;;5042553;28;20044;-75
2021/12/30 03:18:59;;;;;;;9.80;5.05;;;;;;;;;;5042815;28;20052;-75
2021/12/30 03:21:25;;;;;;;8.77;4.95;;;;;;;;;;5048048;28;20029;-75
2021/12/30 03:23:53;;;;;;;9.85;5.15;;;;;;;;;;5046430;28;20055;-75
2021/12/30 03:26:20;;;;;;;8.75;5.07;;;;;;;;;;5046994;28;20121;-75
2021/12/30 03:28:46;;;;;;;9.57;5.18;;;;;;;;;;5039004;28;20043;-75
2021/12/30 03:31:13;;;;;;;7.10;4.35;;;;;;;;;;5042885;28;20040;-75
2021/12/30 03:33:39;;;;;;;6.65;3.85;;;;;;;;;;5059333;28;20032;-75
2021/12/30 03:36:06;;;;;;;7.18;4.13;;;;;;;;;;5061299;28;20052;-75
2021/12/30 03:38:35;;;;;;;7.13;3.78;;;;;;;;;;5061547;28;20046;-75
2021/12/30 03:41:02;;;;;;;7.38;3.63;;;;;;;;;;5061234;28;20063;-75
2021/12/30 03:43:28;;;;;;;5.63;3.85;;;;;;;;;;5055608;28;20035;-75
2021/12/30 03:45:53;;;;;;;4.80;3.28;;;;;;;;;;5065730;28;20025;-75
2021/12/30 03:48:19;;;;;;;4.93;3.33;;;;;;;;;;5060665;28;20040;-75
2021/12/30 03:50:47;;;;;;;5.40;2.97;;;;;;;;;;5049007;28;20056;-75
2021/12/30 03:53:14;;;;;;;5.35;3.33;;;;;;;;;;5037756;28;20049;-75
2021/12/30 03:55:41;;;;;;;5.43;3.33;;;;;;;;;;5044157;28;20044;-75
2021/12/30 03:58:06;;;;;;;6.50;3.42;;;;;;;;;;5066655;28;20039;-75
2021/12/30 04:00:34;;;;;;;5.50;3.28;;;;;;;;;;5043389;28;20045;-75
2021/12/30 04:02:59;;;;;;;6.20;2.90;;;;;;;;;;5038400;28;20438;-75
2021/12/30 04:05:25;;;;;;;4.53;2.40;;;;;;;;;;5040093;28;20037;-75
2021/12/30 04:07:50;;;;;;;4.18;2.60;;;;;;;;;;5037194;28;20038;-75
2021/12/30 04:10:17;;;;;;;3.38;2.50;;;;;;;;;;5041221;28;20025;-75
2021/12/30 04:12:45;;;;;;;3.10;2.28;;;;;;;;;;5048387;28;20058;-75
2021/12/30 04:15:11;;;;;;;3.22;1.95;;;;;;;;;;5049700;28;20041;-75
2021/12/30 04:17:37;;;;;;;3.60;2.10;;;;;;;;;;5051417;28;20048;-75
2021/12/30 04:20:07;;;;;;;2.92;1.85;;;;;;;;;;5051882;28;20075;-75
2021/12/30 04:22:33;;;;;;;3.13;1.90;;;;;;;;;;5065369;28;20063;-75
2021/12/30 04:24:58;;;;;;;2.95;2.00;;;;;;;;;;5061600;28;20035;-74
2021/12/30 04:27:23;;;;;;;3.17;1.60;;;;;;;;;;5064205;28;20037;-75
2021/12/30 04:29:49;;;;;;;3.65;1.58;;;;;;;;;;5062885;28;20080;-75
2021/12/30 04:32:14;;;;;;;3.15;1.38;;;;;;;;;;5064848;28;20120;-75
2021/12/30 04:34:39;;;;;;;2.25;1.52;;;;;;;;;;5065391;28;20128;-75
2021/12/30 04:37:05;;;;;;;2.45;1.60;;;;;;;;;;5065919;28;20107;-75
2021/12/30 04:39:31;;;;;;;2.22;1.58;;;;;;;;;;5068493;28;20095;-75
2021/12/30 04:41:58;;;;;;;1.75;1.30;;;;;;;;;;5069431;28;20043;-75
2021/12/30 04:44:24;;;;;;;2.40;1.60;;;;;;;;;;5063882;28;20488;-75
2021/12/30 04:46:50;;;;;;;2.20;1.40;;;;;;;;;;5068525;28;20057;-75
2021/12/30 04:49:15;;;;;;;2.40;1.77;;;;;;;;;;5065456;28;20424;-75
2021/12/30 04:51:41;;;;;;;2.50;1.83;;;;;;;;;;5060948;28;20043;-75
2021/12/30 04:54:06;;;;;;;1.80;1.30;;;;;;;;;;5061374;28;20162;-75
2021/12/30 04:56:31;;;;;;;3.72;1.77;;;;;;;;;;5062806;28;20051;-75
2021/12/30 04:58:57;;;;;;;2.05;1.60;;;;;;;;;;5064662;28;20135;-75
2021/12/30 05:01:22;;;;;;;3.03;1.73;;;;;;;;;;5062077;28;20040;-75
2021/12/30 05:03:48;;;;;;;1.90;1.42;;;;;;;;;;5065561;28;20393;-75
2021/12/30 05:06:13;;;;;;;2.42;1.67;;;;;;;;;;5060585;28;20040;-75
2021/12/30 05:08:39;;;;;;;1.88;1.20;;;;;;;;;;5053963;28;20041;-75
2021/12/30 05:11:05;;;;;;;3.35;1.50;;;;;;;;;;5054722;28;20581;-75
2021/12/30 05:13:30;;;;;;;2.25;1.50;;;;;;;;;;5061697;28;20405;-75
2021/12/30 05:15:56;;;;;;;2.65;1.83;;;;;;;;;;5061366;28;20095;-75
2021/12/30 05:18:30;;;;;;;2.42;1.70;;;;;;;;;;5062618;28;20513;-75
2021/12/30 05:20:55;;;;;;;3.42;2.22;;;;;;;;;;5062206;28;20453;-75
2021/12/30 05:23:20;;;;;;;3.50;2.13;;;;;;;;;;5059632;28;20530;-75
2021/12/30 05:25:46;;;;;;;4.55;2.45;;;;;;;;;;5064756;28;20032;-75
2021/12/30 05:28:11;;;;;;;5.07;2.38;;;;;;;;;;5062805;28;20545;-75
2021/12/30 05:30:36;;;;;;;3.65;2.45;;;;;;;;;;5059791;28;20103;-75
2021/12/30 05:33:02;;;;;;;3.25;1.95;;;;;;;;;;5062727;28;20029;-75
2021/12/30 05:35:28;;;;;;;3.92;1.92;;;;;;;;;;5060488;28;20561;-75
2021/12/30 05:37:53;;;;;;;3.03;2.10;;;;;;;;;;5062940;28;20127;-75
2021/12/30 05:40:20;;;;;;;3.97;2.33;;;;;;;;;;5062115;28;20564;-75
2021/12/30 05:42:47;;;;;;;3.95;2.10;;;;;;;;;;5055625;28;20028;-75
2021/12/30 05:45:14;;;;;;;2.90;2.05;;;;;;;;;;5060993;28;20036;-75
2021/12/30 05:47:41;;;;;;;3.65;2.03;;;;;;;;;;5066551;28;20471;-75
2021/12/30 05:50:08;;;;;;;3.35;2.05;;;;;;;;;;5069847;28;20124;-75
2021/12/30 05:52:34;;;;;;;3.08;1.80;;;;;;;;;;5063653;28;20032;-75
2021/12/30 05:55:00;;;;;;;3.85;2.20;;;;;;;;;;5058693;28;20097;-75
2021/12/30 05:57:25;;;;;;;3.28;2.08;;;;;;;;;;5061963;28;20399;-75
2021/12/30 05:59:51;;;;;;;4.00;2.30;;;;;;;;;;5062909;28;20071;-75
2021/12/30 06:02:16;;;;;;;3.53;2.30;;;;;;;;;;5059715;28;20131;-75
2021/12/30 06:04:42;;;;;;;4.03;2.55;;;;;;;;;;5065705;28;20544;-75
2021/12/30 06:07:09;;;;;;;5.78;2.75;;;;;;;;;;5059874;28;20025;-75
2021/12/30 06:09:35;;;;;;;5.88;2.88;;;;;;;;;;5059356;28;20036;-75
2021/12/30 06:12:00;;;;;;;4.93;3.08;;;;;;;;;;5059368;28;20540;-75
2021/12/30 06:14:25;;;;;;;5.55;3.30;;;;;;;;;;5044091;28;20037;-75
2021/12/30 06:16:51;;;;;;;7.05;3.92;;;;;;;;;;5035014;28;20045;-75
2021/12/30 06:19:16;;;;;;;7.63;4.40;;;;;;;;;;5034218;28;20032;-75
2021/12/30 06:21:41;;;;;;;7.75;3.88;;;;;;;;;;5024346;28;20049;-75
2021/12/30 06:24:07;;;;;;;8.50;4.65;;;;;;;;;;5039550;28;22411;-75
2021/12/30 06:26:32;;;;;;;9.82;4.10;;;;;;;;;;5044370;28;20013;-75
2021/12/30 06:28:57;;;;;;;8.35;4.43;;;;;;;;;;5040754;28;20766;-75
2021/12/30 06:31:23;;;;;;;7.60;4.45;;;;;;;;;;5060602;28;20037;-75
2021/12/30 06:33:48;;;;;;;9.55;4.35;;;;;;;;;;5065115;28;20087;-75
2021/12/30 06:36:13;;;;;;;6.82;3.60;;;;;;;;;;5057314;28;20041;-75
2021/12/30 06:38:39;;;;;;;6.72;4.18;;;;;;;;;;5061200;28;20036;-75
2021/12/30 06:41:04;;;;;;;9.20;4.43;;;;;;;;;;5057127;28;20040;-75
2021/12/30 06:43:30;;;;;;;9.68;4.60;;;;;;;;;;5058957;28;20036;-75
2021/12/30 06:45:56;;;;;;;10.98;4.70;;;;;;;;;;5058360;28;20048;-75
2021/12/30 06:48:21;;;;;;;11.75;4.47;;;;;;;;;;5066158;28;20060;-75
2021/12/30 06:50:52;;;;;;;10.38;5.10;;;;;;;;;;5066440;28;20024;-75
2021/12/30 06:53:22;;;;;;;11.07;5.53;;;;;;;;;;5040197;28;20083;-75
2021/12/30 06:55:48;;;;;;;9.75;4.68;;;;;;;;;;5037649;28;20080;-75
2021/12/30 06:58:14;;;;;;;9.27;4.30;;;;;;;;;;5046296;28;20041;-75
2021/12/30 07:00:40;;;;;;;12.65;4.93;;;;;;;;;;5040538;28;20706;-75
2021/12/30 07:03:05;;;;;;;9.15;4.97;;;;;;;;;;5036707;28;20024;-75
2021/12/30 07:05:31;;;;;;;8.57;4.70;;;;;;;;;;5036140;28;21201;-75
2021/12/30 07:07:57;;;;;;;9.13;4.70;;;;;;;;;;5039350;28;20045;-75
2021/12/30 07:10:23;;;;;;;7.43;4.43;;;;;;;;;;5040931;28;20033;-75
2021/12/30 07:12:48;;;;;;;10.43;4.75;;;;;;;;;;5047714;28;20037;-75
2021/12/30 07:15:13;;;;;;;7.53;4.20;;;;;;;;;;5047763;28;20506;-75
2021/12/30 07:17:39;;;;;;;10.23;4.03;;;;;;;;;;5041756;28;20170;-75
2021/12/30 07:20:05;;;;;;;10.00;5.18;;;;;;;;;;5038944;28;20044;-75
2021/12/30 07:22:31;;;;;;;9.13;4.53;;;;;;;;;;5046116;28;20036;-75
2021/12/30 07:24:56;;;;;;;12.50;5.03;;;;;;;;;;5050281;28;20101;-75
2021/12/30 07:27:22;;;;;;;7.82;4.72;;;;;;;;;;5046490;28;20614;-75
2021/12/30 07:29:47;;;;;;;10.52;5.28;;;;;;;;;;5043998;28;20498;-75
2021/12/30 07:32:12;;;;;;;12.75;5.97;;;;;;;;;;5055121;28;20037;-75
2021/12/30 07:34:38;;;;;;;13.00;5.43;;;;;;;;;;5041640;28;20140;-75
2021/12/30 07:37:03;;;;;;;11.38;4.80;;;;;;;;;;5037865;28;20075;-75
2021/12/30 07:39:28;;;;;;;8.43;4.57;;;;;;;;;;5042751;28;20067;-75
2021/12/30 07:41:54;;;;;;;13.60;4.70;;;;;;;;;;5043083;28;20037;-75
2021/12/30 07:44:19;;;;;;;9.00;4.78;;;;;;;;;;5038979;28;20456;-75
2021/12/30 07:46:44;;;;;;;9.30;4.20;;;;;;;;;;5042526;28;20033;-75
2021/12/30 07:49:10;;;;;;;7.10;3.92;;;;;;;;;;5034806;28;20048;-75
2021/12/30 07:51:35;;;;;;;14.75;6.50;;;;;;;;;;5046225;28;20033;-75
2021/12/30 07:54:00;;;;;;;8.30;4.50;;;;;;;;;;5035642;28;20102;-75
2021/12/30 07:56:26;;;;;;;11.70;4.40;;;;;;;;;;5046227;28;20482;-75
2021/12/30 07:58:51;;;;;;;9.18;4.00;;;;;;;;;;5051200;28;20048;-75
2021/12/30 08:01:17;;;;;;;8.68;4.00;;;;;;;;;;5041463;28;20064;-75
2021/12/30 08:03:42;;;;;;;10.45;4.68;;;;;;;;;;5037150;28;20139;-75
2021/12/30 08:06:08;;;;;;;13.52;4.80;;;;;;;;;;5041601;28;20041;-74
2021/12/30 08:08:34;;;;;;;9.82;4.80;;;;;;;;;;5024075;28;20474;-74
2021/12/30 08:10:59;;;;;;;9.15;4.15;;;;;;;;;;5041995;28;20037;-76
2021/12/30 08:13:25;;;;;;;10.82;5.25;;;;;;;;;;5033568;28;20098;-75
2021/12/30 08:15:50;;;;;;;10.73;4.72;;;;;;;;;;5046050;28;20406;-77
2021/12/30 08:18:16;;;;;;;9.40;4.68;;;;;;;;;;5047520;28;20425;-75
2021/12/30 08:20:41;;;;;;;8.23;4.03;;;;;;;;;;5045686;28;20037;-74
2021/12/30 08:23:06;;;;;;;12.48;4.55;;;;;;;;;;5041501;28;20041;-74
2021/12/30 08:25:32;;;;;;;9.55;4.13;;;;;;;;;;5030771;28;20585;-72
2021/12/30 08:27:57;;;;;;;10.63;4.40;;;;;;;;;;5039400;28;20506;-75
2021/12/30 08:30:23;;;;;;;10.07;3.95;;;;;;;;;;5041517;28;20088;-75
2021/12/30 08:32:49;;;;;;;10.13;4.53;;;;;;;;;;5045080;28;20048;-75
2021/12/30 08:35:17;;;;;;;6.82;3.90;;;;;;;;;;5041521;28;20578;-75
2021/12/30 08:37:43;;;;;;;7.60;3.88;;;;;;;;;;5042673;28;20033;-74
2021/12/30 08:40:10;;;;;;;6.50;3.50;;;;;;;;;;5017479;28;20030;-76
2021/12/30 08:42:37;;;;;;;6.20;3.33;;;;;;;;;;5009945;28;20029;-76
2021/12/30 08:45:04;;;;;;;9.18;3.53;;;;;;;;;;5021096;28;20037;-74
2021/12/30 08:47:31;;;;;;;10.40;4.10;;;;;;;;;;5007724;28;20060;-74
2021/12/30 08:49:58;;;;;;;7.40;3.97;;;;;;;;;;5042452;28;20036;-73
2021/12/30 08:52:25;;;;;;;10.02;3.65;;;;;;;;;;5037632;28;20125;-75
2021/12/30 08:54:53;;;;;;;8.15;3.00;;;;;;;;;;5025275;28;20048;-76
2021/12/30 08:57:19;;;;;;;4.88;3.00;;;;;;;;;;5037299;28;20046;-74
2021/12/30 08:59:45;;;;;;;5.10;3.22;;;;;;;;;;5037427;28;20074;-74
2021/12/30 09:02:11;;;;;;;5.53;3.25;;;;;;;;;;5056011;28;20033;-74
2021/12/30 09:04:37;;;;;;;5.82;3.05;;;;;;;;;;5060325;28;20028;-73
2021/12/30 09:07:04;;;;;;;8.75;2.90;;;;;;;;;;5055915;28;20599;-73
2021/12/30 09:09:30;;;;;;;9.38;2.97;;;;;;;;;;5058384;28;20063;-71
2021/12/30 09:11:56;;;;;;;6.72;3.28;;;;;;;;;;5057239;28;20405;-76
2021/12/30 09:14:21;;;;;;;5.03;3.28;;;;;;;;;;5053949;28;20025;-71
2021/12/30 09:16:48;;;;;;;6.35;3.53;;;;;;;;;;5056808;28;20136;-71
2021/12/30 09:19:15;;;;;;;5.45;3.25;;;;;;;;;;5063949;28;20037;-76
2021/12/30 09:21:41;;;;;;;7.90;3.42;;;;;;;;;;5066397;28;20032;-77
2021/12/30 09:24:08;;;;;;;8.07;3.80;;;;;;;;;;5062071;28;20039;-77
2021/12/30 09:26:33;;;;;;;7.28;3.50;;;;;;;;;;5060320;28;20017;-76
2021/12/30 09:28:59;;;;;;;6.35;3.67;;;;;;;;;;5055417;28;20452;-71
2021/12/30 09:31:24;;;;;;;8.48;4.15;;;;;;;;;;5047982;28;20442;-74
2021/12/30 09:33:49;;;;;;;7.57;3.88;;;;;;;;;;5043197;28;20068;-71
2021/12/30 09:36:15;;;;;;;8.18;4.28;;;;;;;;;;5039122;28;20433;-76
2021/12/30 09:38:40;;;;;;;9.70;4.60;;;;;;;;;;5043057;28;20111;-76
2021/12/30 09:41:05;;;;;;;10.80;4.43;;;;;;;;;;5048147;28;20029;-76
2021/12/30 09:43:31;;;;;;;10.00;3.85;;;;;;;;;;5045034;28;20032;-77
2021/12/30 09:45:56;;;;;;;13.90;4.22;;;;;;;;;;5035580;28;20040;-73
2021/12/30 09:48:22;;;;;;;10.05;3.83;;;;;;;;;;5040257;28;20037;-74
2021/12/30 09:50:51;;;;;;;8.15;3.47;;;;;;;;;;5037539;28;20039;-77
2021/12/30 09:53:21;;;;;;;10.18;5.47;;;;;;;;;;5042020;28;20041;-75
2021/12/30 09:55:47;;;;;;;19.95;4.55;;;;;;;;;;5030811;28;20131;-71
2021/12/30 09:58:13;;;;;;;7.28;3.30;;;;;;;;;;5031292;28;20079;-72
2021/12/30 10:00:39;;;;;;;9.30;3.53;;;;;;;;;;5044097;28;20071;-70
2021/12/30 10:03:05;;;;;;;8.02;3.20;;;;;;;;;;5044753;28;20735;-73
2021/12/30 10:05:34;;;;;;;7.70;2.72;;;;;;;;;;5039717;28;20032;-73
2021/12/30 10:08:24;;;;;;;6.65;2.60;;;;;;;;;;5038149;28;20037;-73
2021/12/30 10:10:53;;;;;;;5.40;2.70;;;;;;;;;;5037945;28;20064;-73
2021/12/30 10:13:19;;;;;;;5.32;2.90;;;;;;;;;;5042440;28;20041;-73
2021/12/30 10:15:47;;;;;;;7.03;3.03;;;;;;;;;;5033875;28;20051;-74
2021/12/30 10:18:14;;;;;;;8.13;3.00;;;;;;;;;;5037740;28;20115;-76
2021/12/30 10:20:41;;;;;;;9.68;3.67;;;;;;;;;;5037651;28;20020;-75
2021/12/30 10:23:24;;;;;;;7.32;3.53;;;;;;;;;;5052584;28;20119;-74
2021/12/30 10:25:58;;;;;;;9.77;3.95;;;;;;;;;;5060952;28;20578;-78
2021/12/30 10:28:33;;;;;;;8.98;3.13;;;;;;;;;;5045290;28;20037;-76
2021/12/30 10:31:01;;;;;;;9.65;3.58;;;;;;;;;;5035332;28;20526;-79
2021/12/30 10:33:29;;;;;;;7.90;3.72;;;;;;;;;;5045105;28;20110;-78
2021/12/30 10:35:56;;;;;;;7.97;3.13;;;;;;;;;;5044308;28;20040;-79
2021/12/30 10:38:22;;;;;;;7.95;3.40;;;;;;;;;;5035554;28;20020;-78
2021/12/30 10:40:50;;;;;;;11.57;3.58;;;;;;;;;;5050477;28;20036;-76
2021/12/30 10:43:27;;;;;;;12.32;3.70;;;;;;;;;;5067033;28;20032;-77
2021/12/30 10:46:14;;;;;;;8.43;3.08;;;;;;;;;;5048050;28;20068;-78
2021/12/30 10:49:01;;;;;;;8.77;3.20;;;;;;;;;;5047042;28;20040;-83
2021/12/30 10:51:38;;;;;;;8.30;3.50;;;;;;;;;;5051860;28;20110;-73
2021/12/30 10:54:16;;;;;;;7.65;3.60;;;;;;;;;;5063878;28;20020;-73
2021/12/30 10:56:46;;;;;;;12.13;4.20;;;;;;;;;;5063760;28;20119;-74
2021/12/30 10:59:25;;;;;;;9.85;4.47;;;;;;;;;;5057759;28;20082;-76
2021/12/30 11:02:05;;;;;;;9.80;3.95;;;;;;;;;;5054637;28;20441;-73
2021/12/30 11:04:43;;;;;;;9.30;3.97;;;;;;;;;;5053191;28;20580;-72
2021/12/30 11:07:11;;;;;;;6.68;3.80;;;;;;;;;;5060172;28;20071;-72
2021/12/30 11:09:46;;;;;;;6.97;3.83;;;;;;;;;;5059460;28;20083;-72
2021/12/30 11:12:12;;;;;;;9.50;4.07;;;;;;;;;;5063521;28;20032;-72
2021/12/30 11:14:37;;;;;;;9.35;4.05;;;;;;;;;;5062413;28;20024;-73
2021/12/30 11:17:12;;;;;;;10.18;4.35;;;;;;;;;;5051718;28;20673;-73
2021/12/30 11:19:46;;;;;;;5.65;3.95;;;;;;;;;;5058609;28;20401;-72
2021/12/30 11:22:15;;;;;;;10.90;4.40;;;;;;;;;;5056896;28;20047;-72
2021/12/30 11:24:43;;;;;;;6.90;3.95;;;;;;;;;;5063611;28;20051;-73
2021/12/30 11:27:10;;;;;;;11.65;4.30;;;;;;;;;;5051777;28;20133;-74
2021/12/30 11:29:38;;;;;;;10.43;4.40;;;;;;;;;;5062284;28;20024;-73
2021/12/30 11:32:05;;;;;;;12.55;4.15;;;;;;;;;;5050985;28;20605;-74
2021/12/30 11:34:31;;;;;;;10.48;3.83;;;;;;;;;;5062844;28;20533;-74
2021/12/30 11:36:57;;;;;;;10.20;3.88;;;;;;;;;;5061316;28;20032;-74
2021/12/30 11:39:24;;;;;;;15.68;4.20;;;;;;;;;;5050993;28;20032;-74
2021/12/30 11:41:54;;;;;;;9.75;4.45;;;;;;;;;;5059387;28;20448;-73
2021/12/30 11:44:38;;;;;;;9.68;4.35;;;;;;;;;;5052250;28;20025;-74
2021/12/30 11:47:05;;;;;;;11.98;4.40;;;;;;;;;;5059747;28;20056;-74
2021/12/30 11:49:55;;;;;;;11.02;4.00;;;;;;;;;;5048660;28;20093;-74
2021/12/30 11:52:57;;;;;;;10.55;3.83;;;;;;;;;;5063127;28;20087;-74
2021/12/30 11:55:44;;;;;;;12.57;3.90;;;;;;;;;;5055220;28;20070;-74
2021/12/30 11:58:27;;;;;;;10.15;3.78;;;;;;;;;;5062858;28;20047;-73
2021/12/30 12:00:54;;;;;;;10.48;4.20;;;;;;;;;;5041608;28;20052;-73
2021/12/30 12:03:42;;;;;;;12.13;3.92;;;;;;;;;;5027633;28;20057;-75
2021/12/30 12:06:34;;;;;;;11.27;4.00;;;;;;;;;;5031959;28;20075;-78
2021/12/30 12:09:04;;;;;;;11.18;4.05;;;;;;;;;;5051213;28;20124;-76
2021/12/30 12:11:53;;;;;;;10.50;3.72;;;;;;;;;;5051384;28;20071;-74
2021/12/30 12:14:20;;;;;;;14.65;4.10;;;;;;;;;;5049379;28;20054;-80
2021/12/30 12:17:09;;;;;;;10.65;4.53;;;;;;;;;;5051523;28;20509;-79
2021/12/30 12:19:52;;;;;;;10.07;4.40;;;;;;;;;;5049983;28;20048;-79
2021/12/30 12:22:17;;;;;;;11.90;3.90;;;;;;;;;;5054357;28;20045;-72
2021/12/30 12:24:45;;;;;;;9.93;3.20;;;;;;;;;;5045929;28;20287;-74
2021/12/30 12:27:19;;;;;;;12.18;3.97;;;;;;;;;;5040680;28;20187;-74
2021/12/30 12:29:48;;;;;;;12.68;4.05;;;;;;;;;;5038215;28;20677;-70
2021/12/30 12:32:17;;;;;;;8.90;3.78;;;;;;;;;;5056821;28;20445;-70
2021/12/30 12:34:53;;;;;;;12.20;3.67;;;;;;;;;;5047543;28;20067;-70
2021/12/30 12:37:33;;;;;;;12.05;3.85;;;;;;;;;;5050828;28;20456;-73
2021/12/30 12:40:06;;;;;;;12.48;3.78;;;;;;;;;;5057568;28;20090;-73
2021/12/30 12:42:50;;;;;;;11.25;3.83;;;;;;;;;;5051141;28;20074;-73
2021/12/30 12:45:24;;;;;;;10.93;3.63;;;;;;;;;;5050605;28;20082;-73
2021/12/30 12:48:16;;;;;;;13.80;3.70;;;;;;;;;;5056941;28;20048;-73
2021/12/30 12:50:45;;;;;;;12.73;3.45;;;;;;;;;;5060753;28;20076;-73
2021/12/30 12:53:46;;;;;;;12.77;3.92;;;;;;;;;;5060083;28;20086;-72
2021/12/30 12:56:26;;;;;;;18.88;4.82;;;;;;;;;;5056538;28;20037;-75
2021/12/30 12:58:54;;;;;;;11.90;4.18;;;;;;;;;;5059728;28;20036;-75
2021/12/30 13:01:25;;;;;;;12.60;3.92;;;;;;;;;;5059031;28;20044;-71
2021/12/30 13:03:51;;;;;;;12.68;4.55;;;;;;;;;;5059822;28;20028;-72
2021/12/30 13:06:34;;;;;;;11.57;4.07;;;;;;;;;;5059008;28;20032;-70
2021/12/30 13:09:08;;;;;;;18.67;4.63;;;;;;;;;;5058545;28;20078;-72
2021/12/30 13:11:37;;;;;;;9.25;3.90;;;;;;;;;;5063679;28;20036;-74
2021/12/30 13:14:19;;;;;;;11.77;3.47;;;;;;;;;;5057912;28;20055;-72
2021/12/30 13:16:45;;;;;;;12.82;4.00;;;;;;;;;;5058867;28;20040;-70
2021/12/30 13:19:18;;;;;;;11.80;3.70;;;;;;;;;;5060927;28;20033;-74
2021/12/30 13:21:53;;;;;;;11.85;3.95;;;;;;;;;;5067343;28;20032;-73
2021/12/30 13:24:27;;;;;;;16.17;4.28;;;;;;;;;;5055179;28;20571;-71
2021/12/30 13:26:53;;;;;;;8.60;3.70;;;;;;;;;;5059240;28;20528;-72
2021/12/30 13:29:32;;;;;;;13.02;3.80;;;;;;;;;;5064009;28;20016;-72
2021/12/30 13:32:04;;;;;;;11.32;3.83;;;;;;;;;;5047278;28;20037;-72
2021/12/30 13:34:30;;;;;;;11.57;3.97;;;;;;;;;;5049237;28;20087;-72
2021/12/30 13:37:17;;;;;;;13.75;3.92;;;;;;;;;;5062147;28;20103;-72
2021/12/30 13:39:43;;;;;;;12.75;4.00;;;;;;;;;;5061516;28;20050;-72
2021/12/30 13:42:17;;;;;;;13.77;4.03;;;;;;;;;;5053820;28;20051;-72
2021/12/30 13:44:50;;;;;;;9.70;3.80;;;;;;;;;;5056455;28;20024;-72
2021/12/30 13:47:24;;;;;;;;;;;;;;;;;;5055856;28;20059;-72
2021/12/30 13:49:52;;;;;;;10.52;3.55;;;;;;;;;;5028602;28;19927;-72
2021/12/30 13:52:20;;;;;;;15.52;4.32;;;;;;;;;;5032749;28;20422;-72
2021/12/30 13:55:10;;;;;;;15.35;3.75;;;;;;;;;;5035587;28;20037;-72
2021/12/30 13:57:36;;;;;;;10.23;3.88;;;;;;;;;;5036721;28;20040;-72
2021/12/30 14:00:08;;;;;;;8.43;3.83;;;;;;;;;;5043586;28;20035;-72
2021/12/30 14:02:33;;;;;;;11.50;4.35;;;;;;;;;;5043819;28;20036;-72
2021/12/30 14:05:07;;;;;;;9.18;3.97;;;;;;;;;;5040825;28;20049;-72
2021/12/30 14:07:43;;;;;;;11.63;3.83;;;;;;;;;;5038378;28;20135;-71
2021/12/30 14:10:12;;;;;;;11.35;4.10;;;;;;;;;;5037203;28;20044;-72
2021/12/30 14:12:38;;;;;;;13.05;4.65;;;;;;;;;;5037120;28;20053;-72
2021/12/30 14:15:20;;;;;;;12.80;4.10;;;;;;;;;;5024676;28;20032;-72
2021/12/30 14:17:55;;;;;;;17.13;4.57;;;;;;;;;;5032300;28;20049;-72
2021/12/30 14:20:21;;;;;;;10.95;4.00;;;;;;;;;;5034741;28;20037;-72
2021/12/30 14:22:46;;;;;;;17.60;5.45;;;;;;;;;;5028969;28;20037;-72
2021/12/30 14:25:30;;;;;;;15.02;4.90;;;;;;;;;;5044873;28;20061;-71
2021/12/30 14:27:56;;;;;;;12.05;4.03;;;;;;;;;;5042886;28;20041;-71
2021/12/30 14:30:21;;;;;;;11.27;4.10;;;;;;;;;;5032956;28;20049;-73
2021/12/30 14:32:47;;;;;;;14.68;4.15;;;;;;;;;;5033947;28;20059;-72
2021/12/30 14:35:12;;;;;;;11.43;4.68;;;;;;;;;;5045008;28;20453;-71
2021/12/30 14:37:40;;;;;;;11.80;4.07;;;;;;;;;;5027110;28;20034;-73
2021/12/30 14:40:07;;;;;;;13.43;4.38;;;;;;;;;;5043574;28;20597;-73
2021/12/30 14:42:38;;;;;;;8.57;4.28;;;;;;;;;;5028620;28;20041;-73
2021/12/30 14:45:16;;;;;;;12.02;5.03;;;;;;;;;;5032138;28;20055;-73